createdAt,value
2022-09-13T00:00:09.749Z,78.47
2022-09-13T00:02:37.410Z,77.44
2022-09-13T00:05:05.425Z,77.87
2022-09-13T00:07:33.085Z,78.05
2022-09-13T00:10:00.742Z,78.94
2022-09-13T00:12:28.386Z,77.46
2022-09-13T00:14:56.029Z,78.52
2022-09-13T00:17:25.043Z,79.24
2022-09-13T00:19:52.685Z,79.71
2022-09-13T00:22:20.331Z,79.21
2022-09-13T00:24:48.062Z,79.49
2022-09-13T00:27:15.719Z,79.61
2022-09-13T00:29:43.336Z,78.64
2022-09-13T00:32:10.991Z,78.58
2022-09-13T00:34:39.986Z,78.29
2022-09-13T00:37:08.792Z,78.46
2022-09-13T00:39:36.509Z,78.85
2022-09-13T00:42:04.489Z,78.88
2022-09-13T00:44:51.207Z,79.54
2022-09-13T00:47:22.444Z,79.58
2022-09-13T00:49:53.800Z,80.08
2022-09-13T00:52:22.459Z,80.57
2022-09-13T00:54:54.071Z,80.48
2022-09-13T00:57:23.308Z,80.94
2022-09-13T00:59:54.634Z,80.39
2022-09-13T01:02:22.613Z,80.68
2022-09-13T01:04:51.676Z,79.95
2022-09-13T01:07:19.826Z,80.07
2022-09-13T01:09:49.444Z,79.70
2022-09-13T01:12:20.615Z,79.43
2022-09-13T01:14:48.665Z,78.62
2022-09-13T01:17:16.376Z,78.57
2022-09-13T01:19:44.126Z,79.67
2022-09-13T01:22:39.353Z,79.49
2022-09-13T01:25:23.369Z,78.57
2022-09-13T01:28:13.622Z,78.06
2022-09-13T01:30:44.265Z,78.06
2022-09-13T01:33:27.608Z,77.91
2022-09-13T01:36:05.097Z,78.07
2022-09-13T01:38:44.900Z,77.86
2022-09-13T01:41:22.933Z,78.62
2022-09-13T01:44:00.451Z,79.62
2022-09-13T01:46:36.131Z,80.19
2022-09-13T01:49:10.568Z,80.47
2022-09-13T01:51:43.603Z,79.36
2022-09-13T01:54:16.389Z,81.60
2022-09-13T01:56:52.535Z,79.23
2022-09-13T01:59:23.781Z,78.65
2022-09-13T02:01:56.650Z,79.40
2022-09-13T02:04:26.376Z,81.35
2022-09-13T02:07:01.629Z,81.02
2022-09-13T02:09:32.788Z,83.30
2022-09-13T02:12:05.775Z,82.67
2022-09-13T02:14:38.255Z,83.59
2022-09-13T02:17:08.865Z,84.61
2022-09-13T02:19:38.661Z,85.11
2022-09-13T02:22:08.356Z,84.03
2022-09-13T02:24:39.008Z,83.81
2022-09-13T02:27:09.141Z,84.77
2022-09-13T02:29:38.685Z,83.95
2022-09-13T02:32:12.068Z,85.51
2022-09-13T02:34:42.291Z,85.11
2022-09-13T02:37:11.158Z,84.88
2022-09-13T02:39:43.537Z,85.02
2022-09-13T02:42:15.429Z,87.38
2022-09-13T02:44:44.724Z,87.09
2022-09-13T02:47:25.503Z,87.28
2022-09-13T02:49:57.186Z,87.59
2022-09-13T02:52:37.409Z,87.97
2022-09-13T02:55:14.608Z,88.59
2022-09-13T02:57:50.340Z,89.03
2022-09-13T03:00:18.242Z,86.15
2022-09-13T03:02:48.744Z,87.72
2022-09-13T03:05:16.716Z,87.60
2022-09-13T03:07:44.447Z,85.88
2022-09-13T03:10:13.995Z,85.55
2022-09-13T03:12:54.621Z,85.07
2022-09-13T03:15:28.176Z,87.77
2022-09-13T03:18:06.874Z,86.82
2022-09-13T03:20:42.748Z,87.13
2022-09-13T03:23:39.171Z,86.57
2022-09-13T03:26:23.430Z,87.93
2022-09-13T03:28:56.809Z,88.55
2022-09-13T03:31:29.760Z,88.75
2022-09-13T03:34:00.369Z,88.60
2022-09-13T03:36:33.347Z,87.17
2022-09-13T03:39:03.766Z,88.28
2022-09-13T03:41:34.339Z,90.16
2022-09-13T03:44:04.599Z,89.46
2022-09-13T03:46:36.128Z,89.49
2022-09-13T03:49:08.779Z,89.53
2022-09-13T03:51:36.773Z,89.27
2022-09-13T03:54:07.804Z,89.66
2022-09-13T03:56:35.468Z,89.60
2022-09-13T03:59:03.176Z,88.92
2022-09-13T04:01:30.974Z,89.07
2022-09-13T04:03:58.957Z,89.14
2022-09-13T04:06:27.917Z,88.71
2022-09-13T04:08:55.544Z,89.77
2022-09-13T04:11:23.888Z,89.35
2022-09-13T04:13:52.662Z,88.63
2022-09-13T04:16:20.405Z,88.93
2022-09-13T04:18:48.089Z,89.62
2022-09-13T04:21:16.586Z,88.67
2022-09-13T04:23:45.587Z,89.84
2022-09-13T04:26:13.500Z,88.35
2022-09-13T04:28:41.304Z,88.74
2022-09-13T04:31:09.176Z,88.26
2022-09-13T04:33:37.192Z,88.83
2022-09-13T04:36:05.214Z,89.46
2022-09-13T04:38:32.872Z,87.90
2022-09-13T04:41:02.133Z,88.53
2022-09-13T04:43:29.992Z,89.06
2022-09-13T04:46:00.908Z,90.42
2022-09-13T04:48:29.993Z,90.37
2022-09-13T04:51:07.053Z,90.50
2022-09-13T04:53:34.801Z,91.13
2022-09-13T04:56:05.647Z,89.89
2022-09-13T04:58:33.300Z,91.36
2022-09-13T05:01:04.612Z,91.16
2022-09-13T05:03:32.787Z,89.68
2022-09-13T05:06:05.016Z,90.32
2022-09-13T05:08:34.321Z,89.68
2022-09-13T05:11:04.755Z,92.13
2022-09-13T05:13:34.191Z,92.94
2022-09-13T05:16:03.964Z,91.96
2022-09-13T05:18:33.756Z,91.29
2022-09-13T05:21:02.564Z,92.17
2022-09-13T05:23:31.521Z,90.99
2022-09-13T05:26:00.381Z,90.67
2022-09-13T05:28:32.649Z,90.77
2022-09-13T05:31:03.161Z,90.82
2022-09-13T05:33:32.206Z,91.75
2022-09-13T05:36:00.011Z,92.51
2022-09-13T05:38:31.059Z,92.66
2022-09-13T05:40:59.968Z,92.89
2022-09-13T05:43:31.396Z,92.01
2022-09-13T05:46:04.979Z,92.59
2022-09-13T05:48:33.667Z,93.77
2022-09-13T05:51:10.060Z,92.67
2022-09-13T05:53:39.504Z,92.67
2022-09-13T05:56:07.864Z,92.04
2022-09-13T05:58:35.989Z,92.69
2022-09-13T06:01:06.045Z,90.82
2022-09-13T06:03:33.709Z,90.93
2022-09-13T06:06:03.052Z,92.14
2022-09-13T06:08:32.001Z,92.84
2022-09-13T06:11:01.392Z,91.58
2022-09-13T06:13:31.816Z,91.51
2022-09-13T06:16:01.017Z,91.22
2022-09-13T06:18:30.040Z,92.21
2022-09-13T06:21:03.947Z,93.70
2022-09-13T06:23:32.079Z,96.22
2022-09-13T06:26:04.680Z,95.61
2022-09-13T06:28:37.177Z,94.92
2022-09-13T06:31:07.165Z,95.99
2022-09-13T06:33:38.391Z,95.30
2022-09-13T06:36:08.329Z,96.36
2022-09-13T06:38:36.020Z,96.39
2022-09-13T06:41:04.541Z,96.00
2022-09-13T06:43:32.301Z,97.54
2022-09-13T06:46:04.709Z,97.93
2022-09-13T06:48:33.642Z,97.55
2022-09-13T06:51:04.180Z,97.48
2022-09-13T06:53:33.921Z,98.64
2022-09-13T06:56:03.444Z,98.38
2022-09-13T06:58:32.468Z,99.07
2022-09-13T07:01:10.324Z,99.66
2022-09-13T07:03:39.403Z,98.94
2022-09-13T07:06:21.510Z,98.18
2022-09-13T07:08:51.346Z,96.93
2022-09-13T07:11:21.704Z,98.21
2022-09-13T07:13:50.174Z,96.43
2022-09-13T07:16:18.653Z,97.87
2022-09-13T07:18:46.551Z,95.37
2022-09-13T07:21:16.151Z,99.02
2022-09-13T07:23:43.800Z,100.00
2022-09-13T07:26:11.596Z,100.00
2022-09-13T07:28:41.126Z,100.00
2022-09-13T07:31:10.580Z,100.00
2022-09-13T07:33:38.939Z,100.00
2022-09-13T07:36:07.348Z,99.81
2022-09-13T07:38:41.064Z,100.00
2022-09-13T07:41:11.368Z,99.78
2022-09-13T07:43:39.184Z,99.71
2022-09-13T07:46:08.575Z,99.68
2022-09-13T07:48:39.167Z,100.00
2022-09-13T07:51:08.500Z,100.00
2022-09-13T07:53:37.277Z,100.00
2022-09-13T07:56:07.665Z,100.00
2022-09-13T07:58:36.992Z,100.00
2022-09-13T08:01:08.166Z,98.68
2022-09-13T08:03:37.140Z,99.78
2022-09-13T08:06:06.364Z,98.54
2022-09-13T08:08:34.793Z,100.00
2022-09-13T08:11:03.588Z,99.93
2022-09-13T08:13:33.141Z,99.02
2022-09-13T08:16:02.660Z,100.00
2022-09-13T08:18:30.460Z,100.00
2022-09-13T08:20:58.684Z,100.00
2022-09-13T08:23:26.754Z,100.00
2022-09-13T08:25:54.809Z,100.00
2022-09-13T08:28:27.324Z,100.00
2022-09-13T08:30:56.737Z,100.00
2022-09-13T08:33:24.411Z,100.00
2022-09-13T08:35:52.706Z,100.00
2022-09-13T08:38:20.538Z,100.00
2022-09-13T08:40:52.097Z,100.00
2022-09-13T08:43:25.996Z,100.00
2022-09-13T08:45:59.792Z,100.00
2022-09-13T08:48:32.469Z,100.00
2022-09-13T08:51:03.817Z,100.00
2022-09-13T08:53:32.789Z,100.00
2022-09-13T08:56:05.892Z,100.00
2022-09-13T08:58:54.693Z,100.00
2022-09-13T09:01:33.730Z,100.00
2022-09-13T09:04:07.128Z,100.00
2022-09-13T09:06:35.719Z,100.00
2022-09-13T09:09:06.412Z,99.91
2022-09-13T09:11:38.480Z,100.00
2022-09-13T09:14:09.976Z,100.00
2022-09-13T09:16:42.632Z,100.00
2022-09-13T09:19:20.024Z,100.00
2022-09-13T09:21:49.975Z,100.00
2022-09-13T09:24:21.271Z,100.00
2022-09-13T09:26:49.020Z,100.00
2022-09-13T09:29:24.987Z,99.78
2022-09-13T09:32:04.139Z,100.00
2022-09-13T09:34:43.440Z,99.91
2022-09-13T09:37:18.078Z,99.42
2022-09-13T09:39:46.332Z,100.00
2022-09-13T09:42:18.292Z,100.00
2022-09-13T09:44:49.370Z,100.00
2022-09-13T09:47:20.189Z,98.73
2022-09-13T09:50:06.691Z,98.68
2022-09-13T09:52:39.976Z,98.55
2022-09-13T09:55:16.054Z,99.83
2022-09-13T09:57:51.645Z,98.82
2022-09-13T10:00:20.901Z,99.24
2022-09-13T10:02:50.521Z,98.40
2022-09-13T10:05:20.480Z,97.44
2022-09-13T10:07:55.778Z,97.34
2022-09-13T10:10:26.083Z,97.03
2022-09-13T10:12:55.963Z,96.64
2022-09-13T10:15:26.664Z,96.17
2022-09-13T10:18:26.666Z,96.18
2022-09-13T10:21:02.495Z,95.08
2022-09-13T10:23:30.609Z,95.31
2022-09-13T10:26:04.489Z,93.92
2022-09-13T10:28:34.089Z,94.30
2022-09-13T10:31:05.199Z,93.26
2022-09-13T10:33:36.359Z,92.53
2022-09-13T10:36:06.560Z,91.61
2022-09-13T10:38:37.029Z,91.54
2022-09-13T10:41:08.361Z,91.53
2022-09-13T10:43:36.375Z,90.92
2022-09-13T10:46:05.790Z,89.93
2022-09-13T10:48:55.718Z,89.08
2022-09-13T10:51:37.185Z,88.18
2022-09-13T10:54:20.974Z,87.86
2022-09-13T10:56:49.100Z,85.77
2022-09-13T10:59:21.369Z,85.59
2022-09-13T11:01:59.424Z,85.52
2022-09-13T11:04:54.984Z,84.57
2022-09-13T11:07:34.456Z,84.88
2022-09-13T11:10:04.811Z,84.68
2022-09-13T11:12:38.751Z,84.14
2022-09-13T11:15:18.112Z,84.42
2022-09-13T11:18:03.831Z,83.35
2022-09-13T11:20:40.902Z,81.00
2022-09-13T11:23:26.704Z,81.52
2022-09-13T11:26:04.861Z,80.60
2022-09-13T11:28:41.186Z,79.09
2022-09-13T11:31:25.647Z,80.65
2022-09-13T11:34:04.295Z,79.81
2022-09-13T11:36:59.559Z,78.31
2022-09-13T11:39:32.736Z,76.77
2022-09-13T11:42:09.700Z,77.10
2022-09-13T11:45:03.015Z,77.10
2022-09-13T11:47:38.808Z,77.85
2022-09-13T11:50:28.600Z,76.85
2022-09-13T11:53:29.838Z,77.74
2022-09-13T11:56:00.630Z,76.50
2022-09-13T11:58:33.848Z,74.74
2022-09-13T12:01:03.552Z,74.00
2022-09-13T12:03:34.561Z,73.99
2022-09-13T12:06:03.873Z,73.71
2022-09-13T12:08:33.904Z,70.90
2022-09-13T12:11:04.767Z,69.84
2022-09-13T12:13:34.073Z,69.03
2022-09-13T12:16:03.957Z,69.71
2022-09-13T12:18:33.875Z,69.93
2022-09-13T12:21:08.865Z,69.80
2022-09-13T12:23:41.127Z,69.97
2022-09-13T12:26:11.704Z,69.86
2022-09-13T12:28:43.711Z,69.46
2022-09-13T12:31:15.995Z,69.50
2022-09-13T12:33:44.312Z,69.42
2022-09-13T12:36:50.643Z,68.16
2022-09-13T12:39:53.354Z,68.18
2022-09-13T12:42:47.218Z,68.95
2022-09-13T12:45:40.828Z,69.02
2022-09-13T12:48:26.676Z,68.55
2022-09-13T12:51:07.320Z,66.49
2022-09-13T12:53:59.063Z,66.45
2022-09-13T12:56:44.577Z,66.66
2022-09-13T12:59:30.205Z,67.23
2022-09-13T13:02:00.219Z,66.94
2022-09-13T13:04:30.337Z,66.69
2022-09-13T13:07:00.361Z,66.50
2022-09-13T13:09:40.881Z,66.75
2022-09-13T13:12:11.117Z,66.81
2022-09-13T13:14:47.715Z,67.80
2022-09-13T13:17:41.898Z,66.12
2022-09-13T13:20:48.519Z,66.35
2022-09-13T13:23:19.371Z,65.93
2022-09-13T13:26:07.779Z,65.97
2022-09-13T13:29:15.678Z,65.77
2022-09-13T13:32:07.613Z,64.99
2022-09-13T13:34:39.612Z,64.38
2022-09-13T13:37:27.191Z,64.80
2022-09-13T13:40:14.005Z,62.81
2022-09-13T13:42:45.048Z,63.63
2022-09-13T13:45:20.668Z,63.75
2022-09-13T13:48:11.804Z,64.16
2022-09-13T13:51:15.188Z,64.27
2022-09-13T13:53:45.450Z,64.62
2022-09-13T13:56:21.033Z,63.83
2022-09-13T13:58:51.982Z,64.09
2022-09-13T14:01:24.019Z,63.96
2022-09-13T14:04:29.464Z,63.62
2022-09-13T14:07:06.233Z,64.22
2022-09-13T14:09:41.745Z,64.47
2022-09-13T14:12:21.374Z,64.56
2022-09-13T14:15:04.133Z,64.33
2022-09-13T14:18:09.293Z,63.35
2022-09-13T14:20:37.095Z,62.38
2022-09-13T14:23:18.480Z,62.46
2022-09-13T14:25:46.296Z,62.55
2022-09-13T14:28:24.147Z,63.83
2022-09-13T14:30:54.942Z,64.49
2022-09-13T14:33:26.570Z,64.08
2022-09-13T14:36:03.156Z,63.74
2022-09-13T14:38:35.430Z,63.55
2022-09-13T14:41:13.742Z,64.24
2022-09-13T14:43:41.953Z,64.43
2022-09-13T14:46:12.291Z,64.73
2022-09-13T14:48:42.228Z,64.02
2022-09-13T14:51:16.024Z,63.78
2022-09-13T14:53:47.109Z,62.77
2022-09-13T14:56:17.316Z,63.11
2022-09-13T14:58:47.236Z,61.16
2022-09-13T15:01:17.149Z,61.73
2022-09-13T15:03:45.608Z,60.05
2022-09-13T15:06:23.905Z,59.60
2022-09-13T15:08:53.912Z,60.41
2022-09-13T15:11:30.512Z,61.27
2022-09-13T15:14:26.014Z,62.19
2022-09-13T15:16:55.436Z,62.88
2022-09-13T15:19:38.062Z,63.43
2022-09-13T15:22:12.985Z,63.67
2022-09-13T15:24:45.052Z,63.87
2022-09-13T15:27:44.003Z,63.59
2022-09-13T15:30:22.590Z,63.68
2022-09-13T15:32:50.794Z,63.62
2022-09-13T15:35:23.426Z,64.10
2022-09-13T15:38:00.166Z,65.26
2022-09-13T15:40:32.564Z,64.96
2022-09-13T15:43:00.451Z,65.27
2022-09-13T15:45:29.632Z,64.96
2022-09-13T15:47:57.310Z,65.52
2022-09-13T15:50:28.169Z,65.77
2022-09-13T15:52:56.476Z,66.00
2022-09-13T15:55:24.492Z,66.03
2022-09-13T15:57:53.607Z,66.15
2022-09-13T16:00:22.717Z,66.34
2022-09-13T16:02:50.625Z,66.19
2022-09-13T16:05:18.612Z,66.74
2022-09-13T16:07:46.575Z,66.73
2022-09-13T16:10:16.872Z,68.51
2022-09-13T16:12:44.588Z,68.80
2022-09-13T16:15:14.270Z,69.38
2022-09-13T16:17:42.275Z,69.93
2022-09-13T16:20:13.300Z,70.84
2022-09-13T16:22:41.224Z,70.55
2022-09-13T16:25:10.667Z,71.06
2022-09-13T16:27:38.385Z,71.90
2022-09-13T16:30:07.070Z,72.00
2022-09-13T16:32:36.093Z,71.35
2022-09-13T16:35:04.469Z,71.87
2022-09-13T16:37:32.771Z,71.91
2022-09-13T16:40:00.537Z,72.17
2022-09-13T16:42:29.969Z,71.09
2022-09-13T16:44:57.600Z,71.40
2022-09-13T16:47:25.313Z,71.83
2022-09-13T16:49:54.340Z,72.18
2022-09-13T16:52:22.075Z,71.13
2022-09-13T16:54:51.187Z,71.75
2022-09-13T16:57:19.925Z,71.46
2022-09-13T16:59:48.332Z,71.93
2022-09-13T17:02:16.060Z,71.69
2022-09-13T17:04:43.916Z,71.19
2022-09-13T17:07:13.233Z,71.60
2022-09-13T17:09:41.143Z,71.99
2022-09-13T17:12:09.300Z,71.60
2022-09-13T17:14:37.208Z,71.07
2022-09-13T17:17:06.875Z,70.66
2022-09-13T17:19:34.521Z,71.02
2022-09-13T17:22:06.011Z,70.68
2022-09-13T17:24:37.048Z,71.51
2022-09-13T17:27:06.630Z,70.60
2022-09-13T17:29:34.791Z,71.64
2022-09-13T17:32:04.437Z,70.79
2022-09-13T17:34:32.352Z,70.25
2022-09-13T17:36:59.979Z,69.74
2022-09-13T17:39:29.457Z,70.24
2022-09-13T17:41:58.890Z,70.67
2022-09-13T17:44:26.684Z,70.24
2022-09-13T17:46:54.340Z,70.32
2022-09-13T17:49:22.154Z,70.42
2022-09-13T17:51:49.989Z,69.89
2022-09-13T17:54:17.688Z,70.32
2022-09-13T17:56:45.725Z,70.73
2022-09-13T17:59:16.743Z,70.11
2022-09-13T18:01:46.163Z,69.23
2022-09-13T18:04:15.420Z,69.68
2022-09-13T18:06:44.020Z,69.38
2022-09-13T18:09:12.431Z,69.48
2022-09-13T18:11:40.474Z,69.20
2022-09-13T18:14:08.985Z,69.22
2022-09-13T18:16:37.993Z,69.09
2022-09-13T18:19:07.968Z,69.08
2022-09-13T18:21:35.788Z,69.24
2022-09-13T18:24:07.802Z,69.47
2022-09-13T18:26:35.732Z,69.02
2022-09-13T18:29:06.802Z,69.97
2022-09-13T18:31:35.859Z,69.46
2022-09-13T18:34:08.679Z,69.48
2022-09-13T18:36:37.387Z,69.62
2022-09-13T18:39:05.862Z,70.02
2022-09-13T18:41:34.996Z,69.74
2022-09-13T18:44:05.768Z,69.65
2022-09-13T18:46:35.036Z,70.03
2022-09-13T18:49:07.007Z,69.50
2022-09-13T18:51:35.832Z,69.35
2022-09-13T18:54:05.791Z,69.53
2022-09-13T18:56:34.517Z,69.52
2022-09-13T18:59:04.089Z,68.92
2022-09-13T19:01:33.127Z,69.88
2022-09-13T19:04:03.472Z,69.75
2022-09-13T19:06:34.281Z,69.84
2022-09-13T19:09:03.169Z,70.06
2022-09-13T19:11:49.459Z,70.38
2022-09-13T19:14:18.810Z,69.94
2022-09-13T19:16:46.537Z,69.62
2022-09-13T19:19:14.309Z,69.94
2022-09-13T19:21:43.942Z,69.84
2022-09-13T19:24:20.243Z,70.48
2022-09-13T19:26:51.463Z,71.20
2022-09-13T19:29:21.123Z,70.43
2022-09-13T19:31:49.954Z,70.17
2022-09-13T19:34:18.305Z,69.63
2022-09-13T19:36:49.240Z,70.09
2022-09-13T19:39:17.268Z,70.21
2022-09-13T19:41:44.961Z,70.65
2022-09-13T19:44:13.829Z,69.82
2022-09-13T19:46:42.618Z,70.45
2022-09-13T19:49:13.878Z,70.08
2022-09-13T19:51:44.821Z,70.46
2022-09-13T19:54:16.937Z,71.66
2022-09-13T19:56:45.024Z,70.71
2022-09-13T19:59:15.021Z,70.36
2022-09-13T20:01:44.409Z,70.66
2022-09-13T20:04:15.921Z,70.32
2022-09-13T20:06:45.363Z,71.39
2022-09-13T20:09:14.664Z,70.55
2022-09-13T20:11:45.308Z,70.44
2022-09-13T20:14:13.906Z,71.00
2022-09-13T20:16:42.607Z,70.82
2022-09-13T20:19:38.987Z,70.64
2022-09-13T20:22:04.648Z,70.87
2022-09-13T20:24:32.328Z,70.77
2022-09-13T20:27:03.873Z,70.69
2022-09-13T20:29:32.193Z,70.61
2022-09-13T20:32:00.378Z,70.49
2022-09-13T20:34:28.107Z,70.84
2022-09-13T20:36:56.102Z,71.42
2022-09-13T20:39:24.168Z,70.83
2022-09-13T20:41:52.002Z,70.35
2022-09-13T20:44:21.011Z,70.54
2022-09-13T20:46:48.754Z,70.49
2022-09-13T20:49:16.678Z,71.18
2022-09-13T20:51:45.896Z,71.38
2022-09-13T20:54:13.761Z,70.73
2022-09-13T20:56:41.445Z,70.86
2022-09-13T20:59:09.993Z,70.36
2022-09-13T21:01:39.115Z,70.77
2022-09-13T21:04:06.942Z,71.41
2022-09-13T21:06:38.636Z,70.48
2022-09-13T21:09:06.138Z,70.75
2022-09-13T21:11:35.762Z,70.50
2022-09-13T21:14:06.164Z,70.57
2022-09-13T21:16:35.932Z,71.42
2022-09-13T21:19:06.189Z,71.62
2022-09-13T21:21:36.078Z,72.14
2022-09-13T21:24:09.409Z,71.11
2022-09-13T21:26:39.573Z,72.12
2022-09-13T21:29:07.295Z,71.84
2022-09-13T21:31:35.162Z,71.87
2022-09-13T21:34:05.816Z,72.21
2022-09-13T21:36:35.436Z,72.61
2022-09-13T21:39:04.031Z,72.46
2022-09-13T21:41:32.189Z,72.07
2022-09-13T21:43:59.945Z,73.23
2022-09-13T21:46:30.875Z,73.56
2022-09-13T21:49:00.497Z,73.84
2022-09-13T21:51:31.199Z,74.13
2022-09-13T21:54:01.046Z,73.91
2022-09-13T21:56:31.394Z,73.82
2022-09-13T21:59:03.485Z,74.39
2022-09-13T22:01:33.207Z,74.27
2022-09-13T22:04:03.090Z,74.00
2022-09-13T22:06:34.563Z,73.79
2022-09-13T22:09:05.261Z,74.44
2022-09-13T22:11:38.508Z,74.59
2022-09-13T22:14:10.377Z,74.75
2022-09-13T22:16:39.894Z,74.66
2022-09-13T22:19:09.667Z,74.72
2022-09-13T22:21:40.735Z,74.03
2022-09-13T22:24:10.218Z,74.69
2022-09-13T22:26:40.549Z,73.66
2022-09-13T22:29:09.681Z,75.23
2022-09-13T22:31:39.049Z,74.95
2022-09-13T22:34:08.585Z,75.28
2022-09-13T22:36:36.369Z,75.13
2022-09-13T22:39:05.591Z,74.56
2022-09-13T22:41:34.189Z,75.74
2022-09-13T22:44:04.149Z,74.42
2022-09-13T22:46:33.727Z,75.23
2022-09-13T22:49:01.956Z,73.97
2022-09-13T22:51:30.141Z,73.72
2022-09-13T22:53:59.837Z,75.34
2022-09-13T22:56:32.079Z,73.89
2022-09-13T22:59:02.980Z,74.38
2022-09-13T23:01:31.738Z,75.17
2022-09-13T23:04:01.714Z,75.08
2022-09-13T23:06:30.502Z,75.66
2022-09-13T23:09:00.373Z,74.88
2022-09-13T23:11:31.190Z,73.80
2022-09-13T23:14:01.869Z,74.13
2022-09-13T23:16:33.015Z,74.17
2022-09-13T23:19:01.826Z,74.91
2022-09-13T23:21:31.383Z,74.85
2022-09-13T23:23:59.865Z,74.25
2022-09-13T23:26:27.798Z,73.52
2022-09-13T23:28:57.986Z,74.06
2022-09-13T23:31:27.760Z,73.83
2022-09-13T23:33:57.284Z,73.86
2022-09-13T23:36:26.982Z,74.38
2022-09-13T23:38:57.159Z,73.85
2022-09-13T23:41:25.858Z,74.42
2022-09-13T23:43:54.227Z,74.15
2022-09-13T23:46:23.608Z,74.15
2022-09-13T23:48:51.510Z,73.89
2022-09-13T23:51:20.944Z,74.64
2022-09-13T23:53:48.724Z,75.35
2022-09-13T23:56:17.676Z,74.58
2022-09-13T23:58:46.495Z,74.21
